createdAt,value
2023-05-06T00:02:22.047Z,100044.66
2023-05-06T00:04:50.360Z,100037.00
2023-05-06T00:07:18.495Z,100035.63
2023-05-06T00:09:46.584Z,100036.88
2023-05-06T00:12:15.144Z,100043.19
2023-05-06T00:14:43.258Z,100039.59
2023-05-06T00:17:11.849Z,100041.13
2023-05-06T00:19:41.358Z,100026.84
2023-05-06T00:22:09.441Z,100033.81
2023-05-06T00:24:37.545Z,100041.72
2023-05-06T00:27:05.745Z,100030.75
2023-05-06T00:29:33.834Z,100044.88
2023-05-06T00:32:02.185Z,100043.69
2023-05-06T00:34:30.450Z,100040.59
2023-05-06T00:36:59.994Z,100039.81
2023-05-06T00:39:28.037Z,100037.53
2023-05-06T00:42:02.356Z,100041.34
2023-05-06T00:44:30.682Z,100038.88
2023-05-06T00:47:00.872Z,100036.53
2023-05-06T00:49:30.483Z,100042.84
2023-05-06T00:52:02.771Z,100041.91
2023-05-06T00:54:30.975Z,100042.69
2023-05-06T00:56:59.187Z,100039.25
2023-05-06T00:59:27.307Z,100036.63
2023-05-06T01:01:55.558Z,100037.41
2023-05-06T01:04:25.166Z,100033.06
2023-05-06T01:07:06.153Z,100038.19
2023-05-06T01:09:40.854Z,100037.41
2023-05-06T01:12:13.564Z,100034.69
2023-05-06T01:14:44.466Z,100037.41
2023-05-06T01:17:14.227Z,100029.66
2023-05-06T01:19:46.739Z,100032.31
2023-05-06T01:22:16.928Z,100024.56
2023-05-06T01:24:48.096Z,100031.53
2023-05-06T01:27:18.379Z,100029.81
2023-05-06T01:29:48.618Z,100029.97
2023-05-06T01:32:34.562Z,100026.59
2023-05-06T01:35:11.102Z,100021.16
2023-05-06T01:37:46.680Z,100012.88
2023-05-06T01:40:17.634Z,100019.94
2023-05-06T01:42:48.902Z,100024.34
2023-05-06T01:45:19.516Z,100023.50
2023-05-06T01:47:48.307Z,100008.88
2023-05-06T01:50:16.886Z,100021.00
2023-05-06T01:52:45.042Z,100016.69
2023-05-06T01:55:13.161Z,100013.59
2023-05-06T01:57:42.646Z,100016.84
2023-05-06T02:00:11.683Z,100016.84
2023-05-06T02:02:39.822Z,100017.78
2023-05-06T02:05:09.331Z,100022.19
2023-05-06T02:07:37.656Z,100024.13
2023-05-06T02:10:06.361Z,100020.75
2023-05-06T02:12:34.477Z,100028.09
2023-05-06T02:15:04.352Z,100023.81
2023-05-06T02:17:32.487Z,100029.88
2023-05-06T02:20:00.820Z,100022.72
2023-05-06T02:22:28.886Z,100014.69
2023-05-06T02:24:57.002Z,100018.97
2023-05-06T02:27:25.199Z,100024.13
2023-05-06T02:29:53.266Z,100017.94
2023-05-06T02:32:22.814Z,100025.69
2023-05-06T02:34:51.793Z,100022.56
2023-05-06T02:37:19.924Z,100028.28
2023-05-06T02:39:47.993Z,100028.81
2023-05-06T02:42:16.895Z,100027.97
2023-05-06T02:44:45.080Z,100024.56
2023-05-06T02:47:13.119Z,100027.28
2023-05-06T02:49:42.590Z,100025.88
2023-05-06T02:52:10.718Z,100022.56
2023-05-06T02:54:38.767Z,100030.66
2023-05-06T02:57:06.847Z,100029.25
2023-05-06T02:59:35.153Z,100025.22
2023-05-06T03:02:03.284Z,100031.56
2023-05-06T03:04:31.493Z,100032.84
2023-05-06T03:07:01.000Z,100026.78
2023-05-06T03:09:29.074Z,100026.78
2023-05-06T03:11:57.913Z,100025.84
2023-05-06T03:14:26.228Z,100030.03
2023-05-06T03:16:54.331Z,100034.19
2023-05-06T03:19:22.580Z,100026.25
2023-05-06T03:21:50.854Z,100022.72
2023-05-06T03:24:20.331Z,100027.69
2023-05-06T03:26:48.460Z,100029.47
2023-05-06T03:29:16.620Z,100021.50
2023-05-06T03:31:44.773Z,100014.44
2023-05-06T03:34:12.997Z,100016.13
2023-05-06T03:36:41.424Z,100020.41
2023-05-06T03:39:09.590Z,100014.75
2023-05-06T03:41:39.044Z,100016.28
2023-05-06T03:44:07.134Z,100012.47
2023-05-06T03:46:35.324Z,100020.81
2023-05-06T03:49:03.660Z,100012.59
2023-05-06T03:51:31.890Z,100025.28
2023-05-06T03:54:00.454Z,100034.25
2023-05-06T03:56:28.504Z,100025.66
2023-05-06T03:58:58.055Z,100023.28
2023-05-06T04:01:28.940Z,100030.34
2023-05-06T04:03:57.101Z,100029.94
2023-05-06T04:06:26.207Z,100037.94
2023-05-06T04:08:57.060Z,100038.94
2023-05-06T04:11:25.249Z,100040.50
2023-05-06T04:13:53.370Z,100044.13
2023-05-06T04:16:23.307Z,100047.53
2023-05-06T04:18:51.828Z,100038.13
2023-05-06T04:21:19.975Z,100031.91
2023-05-06T04:23:48.083Z,100047.22
2023-05-06T04:26:18.979Z,100039.03
2023-05-06T04:28:47.142Z,100044.97
2023-05-06T04:31:15.701Z,100049.41
2023-05-06T04:33:45.219Z,100048.50
2023-05-06T04:36:13.377Z,100052.38
2023-05-06T04:38:41.887Z,100054.25
2023-05-06T04:41:10.022Z,100051.75
2023-05-06T04:43:38.114Z,100053.00
2023-05-06T04:46:06.386Z,100057.53
2023-05-06T04:48:34.539Z,100050.81
2023-05-06T04:51:05.503Z,100056.09
2023-05-06T04:53:33.741Z,100054.41
2023-05-06T04:56:01.840Z,100060.84
2023-05-06T04:58:34.547Z,100059.69
2023-05-06T05:01:05.927Z,100069.44
2023-05-06T05:03:34.018Z,100069.34
2023-05-06T05:06:03.563Z,100067.63
2023-05-06T05:08:31.701Z,100068.72
2023-05-06T05:11:01.698Z,100077.06
2023-05-06T05:13:29.787Z,100060.81
2023-05-06T05:15:58.050Z,100076.44
2023-05-06T05:18:26.295Z,100074.84
2023-05-06T05:20:54.506Z,100067.75
2023-05-06T05:23:24.320Z,100068.69
2023-05-06T05:25:52.434Z,100073.66
2023-05-06T05:28:20.455Z,100068.28
2023-05-06T05:30:48.611Z,100073.84
2023-05-06T05:33:17.088Z,100072.25
2023-05-06T05:35:45.385Z,100067.72
2023-05-06T05:38:14.437Z,100067.13
2023-05-06T05:40:43.969Z,100063.13
2023-05-06T05:43:12.070Z,100067.09
2023-05-06T05:45:40.134Z,100073.53
2023-05-06T05:48:08.300Z,100061.88
2023-05-06T05:50:36.437Z,100062.16
2023-05-06T05:53:05.725Z,100064.22
2023-05-06T05:55:33.883Z,100055.47
2023-05-06T05:58:03.400Z,100048.81
2023-05-06T06:00:31.469Z,100053.44
2023-05-06T06:02:59.750Z,100055.47
2023-05-06T06:05:27.983Z,100046.72
2023-05-06T06:07:56.134Z,100049.88
2023-05-06T06:10:24.267Z,100047.88
2023-05-06T06:12:52.476Z,100044.69
2023-05-06T06:15:22.371Z,100047.63
2023-05-06T06:17:50.518Z,100048.44
2023-05-06T06:20:18.773Z,100046.38
2023-05-06T06:22:47.054Z,100053.00
2023-05-06T06:25:15.332Z,100043.25
2023-05-06T06:27:43.415Z,100042.53
2023-05-06T06:30:12.179Z,100040.13
2023-05-06T06:32:49.619Z,100043.16
2023-05-06T06:35:18.119Z,100043.84
2023-05-06T06:37:46.282Z,100038.63
2023-05-06T06:40:15.105Z,100043.41
2023-05-06T06:42:43.327Z,100037.44
2023-05-06T06:45:12.634Z,100037.34
2023-05-06T06:47:42.447Z,100032.56
2023-05-06T06:50:11.611Z,100039.78
2023-05-06T06:52:39.698Z,100036.13
2023-05-06T06:55:08.911Z,100040.34
2023-05-06T06:57:37.939Z,100032.78
2023-05-06T07:00:06.647Z,100033.66
2023-05-06T07:02:34.909Z,100029.75
2023-05-06T07:05:04.443Z,100037.56
2023-05-06T07:07:32.589Z,100033.88
2023-05-06T07:10:01.108Z,100033.78
2023-05-06T07:12:29.354Z,100043.56
2023-05-06T07:14:57.464Z,100043.22
2023-05-06T07:17:25.790Z,100036.34
2023-05-06T07:19:54.080Z,100038.69
2023-05-06T07:22:23.608Z,100039.38
2023-05-06T07:24:51.716Z,100037.84
2023-05-06T07:27:19.869Z,100035.16
2023-05-06T07:29:48.074Z,100040.00
2023-05-06T07:32:22.497Z,100043.00
2023-05-06T07:34:51.034Z,100036.13
2023-05-06T07:37:19.152Z,100038.44
2023-05-06T07:39:48.776Z,100038.75
2023-05-06T07:42:19.247Z,100035.72
2023-05-06T07:44:47.408Z,100040.13
2023-05-06T07:47:27.727Z,100034.63
2023-05-06T07:49:57.733Z,100043.22
2023-05-06T07:52:26.262Z,100034.56
2023-05-06T07:54:55.828Z,100039.47
2023-05-06T07:57:23.930Z,100036.22
2023-05-06T07:59:53.310Z,100036.06
2023-05-06T08:02:21.502Z,100023.69
2023-05-06T08:04:51.647Z,100048.22
2023-05-06T08:07:20.522Z,100042.44
2023-05-06T08:09:48.800Z,100038.44
2023-05-06T08:12:18.393Z,100045.78
2023-05-06T08:14:46.824Z,100047.50
2023-05-06T08:17:14.978Z,100041.16
2023-05-06T08:19:46.455Z,100044.25
2023-05-06T08:22:18.825Z,100051.63
2023-05-06T08:24:50.348Z,100044.53
2023-05-06T08:27:23.479Z,100057.78
2023-05-06T08:29:54.263Z,100044.47
2023-05-06T08:32:25.933Z,100055.25
2023-05-06T08:34:58.897Z,100042.78
2023-05-06T08:37:31.159Z,100051.63
2023-05-06T08:40:00.021Z,100046.84
2023-05-06T08:42:31.567Z,100045.66
2023-05-06T08:45:00.792Z,100039.94
2023-05-06T08:47:32.196Z,100032.53
2023-05-06T08:50:04.870Z,100037.34
2023-05-06T08:52:36.575Z,100031.84
2023-05-06T08:55:09.170Z,100031.50
2023-05-06T08:57:43.583Z,100034.91
2023-05-06T09:00:16.217Z,100026.13
2023-05-06T09:02:47.868Z,100032.31
2023-05-06T09:05:18.963Z,100028.63
2023-05-06T09:07:50.110Z,100031.22
2023-05-06T09:10:21.443Z,100030.28
2023-05-06T09:12:58.841Z,100026.44
2023-05-06T09:15:30.266Z,100017.72
2023-05-06T09:18:04.161Z,100014.34
2023-05-06T09:20:37.692Z,100019.34
2023-05-06T09:23:10.710Z,100013.59
2023-05-06T09:25:42.560Z,100012.41
2023-05-06T09:28:16.490Z,100007.31
2023-05-06T09:30:52.121Z,100001.19
2023-05-06T09:33:24.149Z,100001.47
2023-05-06T09:35:55.628Z,100001.19
2023-05-06T09:38:27.016Z,100013.50
2023-05-06T09:40:59.037Z,100002.47
2023-05-06T09:43:32.386Z,100003.84
2023-05-06T09:46:09.077Z,99999.63
2023-05-06T09:48:40.676Z,99996.00
2023-05-06T09:51:12.587Z,99997.28
2023-05-06T09:53:43.857Z,99994.03
2023-05-06T09:56:15.721Z,99987.53
2023-05-06T09:58:47.183Z,99989.88
2023-05-06T10:01:25.195Z,99971.50
2023-05-06T10:04:00.566Z,99974.44
2023-05-06T10:06:29.090Z,99974.25
2023-05-06T10:08:58.336Z,99974.56
2023-05-06T10:11:27.354Z,99973.34
2023-05-06T10:13:56.941Z,99970.66
2023-05-06T10:16:25.127Z,99968.03
2023-05-06T10:18:55.749Z,99962.75
2023-05-06T10:21:29.034Z,99962.00
2023-05-06T10:24:04.664Z,99959.81
2023-05-06T10:26:34.146Z,99956.38
2023-05-06T10:29:06.075Z,99948.22
2023-05-06T10:31:35.748Z,99934.78
2023-05-06T10:34:08.091Z,99946.25
2023-05-06T10:36:38.625Z,99941.31
2023-05-06T10:39:08.118Z,99939.72
2023-05-06T10:41:37.785Z,99943.09
2023-05-06T10:44:07.389Z,99939.09
2023-05-06T10:46:59.847Z,99937.03
2023-05-06T10:49:29.163Z,99930.22
2023-05-06T10:52:14.677Z,99922.41
2023-05-06T10:54:51.708Z,99922.38
2023-05-06T10:57:20.940Z,99920.09
2023-05-06T10:59:50.850Z,99922.31
2023-05-06T11:02:21.501Z,99921.47
2023-05-06T11:05:00.815Z,99918.41
2023-05-06T11:07:29.054Z,99919.06
2023-05-06T11:09:58.854Z,99919.78
2023-05-06T11:12:46.426Z,99914.38
2023-05-06T11:15:26.661Z,99915.88
2023-05-06T11:17:55.973Z,99914.84
2023-05-06T11:20:25.922Z,99908.03
2023-05-06T11:22:54.809Z,99919.28
2023-05-06T11:25:45.090Z,99919.03
2023-05-06T11:28:14.330Z,99920.28
2023-05-06T11:30:45.380Z,99914.22
2023-05-06T11:33:21.611Z,99915.66
2023-05-06T11:35:53.632Z,99914.56
2023-05-06T11:38:23.531Z,99904.41
2023-05-06T11:40:55.104Z,99918.09
2023-05-06T11:43:26.364Z,99917.34
2023-05-06T11:45:59.057Z,99914.19
2023-05-06T11:48:30.106Z,99910.38
2023-05-06T11:51:01.040Z,99918.22
2023-05-06T11:53:33.885Z,99908.41
2023-05-06T11:56:05.649Z,99913.28
2023-05-06T11:58:37.489Z,99914.53
2023-05-06T12:01:10.957Z,99917.28
2023-05-06T12:03:42.347Z,99914.44
2023-05-06T12:06:14.162Z,99916.97
2023-05-06T12:08:44.986Z,99909.72
2023-05-06T12:11:16.384Z,99910.91
2023-05-06T12:13:51.048Z,99905.81
2023-05-06T12:16:23.876Z,99915.72
2023-05-06T12:18:56.235Z,99907.47
2023-05-06T12:21:27.932Z,99914.69
2023-05-06T12:24:00.318Z,99916.25
2023-05-06T12:26:33.018Z,99908.94
2023-05-06T12:29:08.973Z,99903.75
2023-05-06T12:31:38.987Z,99900.53
2023-05-06T12:34:07.246Z,99906.22
2023-05-06T12:36:40.821Z,99907.97
2023-05-06T12:39:09.543Z,99900.28
2023-05-06T12:41:41.109Z,99896.25
2023-05-06T12:44:34.841Z,99903.41
2023-05-06T12:47:05.780Z,99895.97
2023-05-06T12:49:50.481Z,99899.44
2023-05-06T12:52:20.010Z,99893.69
2023-05-06T12:54:49.048Z,99895.50
2023-05-06T12:57:17.474Z,99900.09
2023-05-06T12:59:49.460Z,99899.94
2023-05-06T13:02:19.773Z,99891.56
2023-05-06T13:04:47.981Z,99899.09
2023-05-06T13:07:16.064Z,99901.63
2023-05-06T13:12:13.189Z,99895.59
2023-05-06T13:14:41.389Z,99889.72
2023-05-06T13:17:09.845Z,99898.78
2023-05-06T13:19:39.365Z,99888.69
2023-05-06T13:22:07.627Z,99892.03
2023-05-06T13:24:36.730Z,99892.06
2023-05-06T13:27:04.905Z,99891.56
2023-05-06T13:29:33.097Z,99889.72
2023-05-06T13:32:01.870Z,99886.69
2023-05-06T13:34:30.013Z,99884.00
2023-05-06T13:37:00.007Z,99886.03
2023-05-06T13:39:28.225Z,99882.66
2023-05-06T13:41:56.360Z,99877.78
2023-05-06T13:44:24.775Z,99880.94
2023-05-06T13:46:53.377Z,99875.22
2023-05-06T13:49:21.591Z,99895.28
2023-05-06T13:51:50.042Z,99883.94
2023-05-06T13:54:19.637Z,99888.56
2023-05-06T13:56:47.842Z,99891.84
2023-05-06T13:59:16.020Z,99883.59
2023-05-06T14:01:44.613Z,99881.50
2023-05-06T14:04:12.746Z,99886.44
2023-05-06T14:06:40.767Z,99879.88
2023-05-06T14:09:09.198Z,99880.91
2023-05-06T14:11:38.798Z,99888.63
2023-05-06T14:14:07.575Z,99891.72
2023-05-06T14:16:35.870Z,99882.28
2023-05-06T14:19:04.823Z,99887.28
2023-05-06T14:21:32.963Z,99881.00
2023-05-06T14:24:01.256Z,99874.84
2023-05-06T14:26:29.424Z,99880.47
2023-05-06T14:28:58.960Z,99874.06
2023-05-06T14:31:27.969Z,99863.63
2023-05-06T14:33:56.325Z,99865.34
2023-05-06T14:36:24.392Z,99867.50
2023-05-06T14:38:52.557Z,99863.00
2023-05-06T14:41:21.018Z,99880.22
2023-05-06T14:43:49.212Z,99864.63
2023-05-06T14:46:19.119Z,99861.63
2023-05-06T14:48:47.223Z,99857.84
2023-05-06T14:51:15.347Z,99867.69
2023-05-06T14:53:43.604Z,99863.50
2023-05-06T14:56:12.080Z,99861.38
2023-05-06T14:58:40.552Z,99855.19
2023-05-06T15:01:08.726Z,99858.56
2023-05-06T15:03:38.317Z,99862.66
2023-05-06T15:06:06.737Z,99861.94
2023-05-06T15:08:34.940Z,99878.16
2023-05-06T15:11:04.292Z,99871.25
2023-05-06T15:13:32.682Z,99870.56
2023-05-06T15:16:00.865Z,99868.88
2023-05-06T15:18:29.027Z,99867.16
2023-05-06T15:21:01.647Z,99860.94
2023-05-06T15:23:29.902Z,99854.72
2023-05-06T15:25:58.934Z,99853.56
2023-05-06T15:28:27.174Z,99846.63
2023-05-06T15:30:55.329Z,99849.19
2023-05-06T15:33:23.364Z,99857.56
2023-05-06T15:35:51.603Z,99858.94
2023-05-06T15:38:21.032Z,99859.19
2023-05-06T15:40:52.211Z,99865.81
2023-05-06T15:43:23.778Z,99849.47
2023-05-06T15:45:53.081Z,99844.75
2023-05-06T15:48:21.283Z,99846.91
2023-05-06T15:50:49.388Z,99850.19
2023-05-06T15:53:17.559Z,99848.84
2023-05-06T15:55:56.319Z,99853.44
2023-05-06T15:58:26.105Z,99847.69
2023-05-06T16:00:54.196Z,99841.50
2023-05-06T16:03:22.403Z,99840.19
2023-05-06T16:05:50.742Z,99840.16
2023-05-06T16:08:18.850Z,99842.44
2023-05-06T16:10:48.406Z,99835.38
2023-05-06T16:13:16.574Z,99835.00
2023-05-06T16:15:45.077Z,99832.81
2023-05-06T16:18:13.451Z,99839.00
2023-05-06T16:20:41.805Z,99833.03
2023-05-06T16:23:10.117Z,99836.03
2023-05-06T16:25:39.050Z,99841.06
2023-05-06T16:28:09.578Z,99841.50
2023-05-06T16:30:38.159Z,99849.59
2023-05-06T16:33:06.437Z,99845.63
2023-05-06T16:35:34.573Z,99844.88
2023-05-06T16:38:02.645Z,99850.00
2023-05-06T16:40:31.218Z,99861.22
2023-05-06T16:42:59.353Z,99855.78
2023-05-06T16:45:28.950Z,99850.78
2023-05-06T16:47:57.225Z,99858.63
2023-05-06T16:50:25.447Z,99862.50
2023-05-06T16:52:54.186Z,99866.84
2023-05-06T16:55:22.643Z,99876.19
2023-05-06T16:57:50.755Z,99867.31
2023-05-06T17:00:19.841Z,99864.50
2023-05-06T17:02:49.447Z,99866.59
2023-05-06T17:05:20.172Z,99863.41
2023-05-06T17:07:50.752Z,99858.22
2023-05-06T17:10:19.215Z,99857.50
2023-05-06T17:12:47.274Z,99856.22
2023-05-06T17:15:15.424Z,99855.81
2023-05-06T17:17:43.571Z,99855.84
2023-05-06T17:20:13.762Z,99852.03
2023-05-06T17:22:41.935Z,99850.63
2023-05-06T17:25:10.659Z,99846.97
2023-05-06T17:27:38.793Z,99849.22
2023-05-06T17:30:09.614Z,99850.38
2023-05-06T17:32:37.919Z,99847.97
2023-05-06T17:35:06.654Z,99845.41
2023-05-06T17:37:36.427Z,99854.00
2023-05-06T17:40:06.012Z,99851.19
2023-05-06T17:42:35.145Z,99848.94
2023-05-06T17:45:03.551Z,99846.69
2023-05-06T17:47:31.653Z,99838.91
2023-05-06T17:49:59.694Z,99840.75
2023-05-06T17:52:27.759Z,99847.91
2023-05-06T17:55:11.306Z,99850.84
2023-05-06T17:57:44.926Z,99847.47
2023-05-06T18:00:14.136Z,99853.34
2023-05-06T18:02:42.386Z,99850.56
2023-05-06T18:05:11.488Z,99852.03
2023-05-06T18:07:40.142Z,99854.13
2023-05-06T18:10:10.982Z,99853.56
2023-05-06T18:12:39.309Z,99859.03
2023-05-06T18:15:09.064Z,99860.28
2023-05-06T18:17:37.415Z,99863.66
2023-05-06T18:20:06.677Z,99866.13
2023-05-06T18:22:34.971Z,99858.13
2023-05-06T18:25:04.404Z,99867.81
2023-05-06T18:27:33.959Z,99873.97
2023-05-06T18:30:02.456Z,99878.41
2023-05-06T18:32:30.563Z,99877.50
2023-05-06T18:34:58.724Z,99881.72
2023-05-06T18:37:28.742Z,99871.91
2023-05-06T18:39:56.904Z,99870.94
2023-05-06T18:42:25.057Z,99873.59
2023-05-06T18:44:54.612Z,99875.81
2023-05-06T18:47:22.747Z,99869.50
2023-05-06T18:49:50.935Z,99882.81
2023-05-06T18:52:19.232Z,99874.28
2023-05-06T18:54:47.470Z,99876.34
2023-05-06T18:57:15.732Z,99877.63
2023-05-06T18:59:43.847Z,99876.53
2023-05-06T19:02:13.330Z,99882.09
2023-05-06T19:04:41.459Z,99883.41
2023-05-06T19:07:10.279Z,99889.50
2023-05-06T19:09:38.435Z,99895.31
2023-05-06T19:12:06.733Z,99896.63
2023-05-06T19:14:35.289Z,99894.22
2023-05-06T19:17:04.711Z,99891.69
2023-05-06T19:19:34.432Z,99885.25
2023-05-06T19:22:02.810Z,99895.06
2023-05-06T19:24:31.589Z,99899.09
2023-05-06T19:26:59.710Z,99907.66
2023-05-06T19:29:27.795Z,99906.69
2023-05-06T19:31:55.965Z,99908.38
2023-05-06T19:34:24.139Z,99912.97
2023-05-06T19:36:53.792Z,99917.34
2023-05-06T19:39:22.034Z,99920.97
2023-05-06T19:41:50.420Z,99924.84
2023-05-06T19:44:18.536Z,99931.31
2023-05-06T19:46:46.845Z,99936.81
2023-05-06T19:49:15.038Z,99945.97
2023-05-06T19:51:43.102Z,99947.31
2023-05-06T19:54:12.510Z,99944.50
2023-05-06T19:56:40.601Z,99937.28
2023-05-06T19:59:08.653Z,99944.88
2023-05-06T20:01:36.755Z,99947.31
2023-05-06T20:04:05.344Z,99943.53
2023-05-06T20:06:33.603Z,99936.91
2023-05-06T20:09:01.714Z,99937.88
2023-05-06T20:11:31.191Z,99936.53
2023-05-06T20:13:59.281Z,99933.88
2023-05-06T20:16:27.412Z,99929.03
2023-05-06T20:18:55.614Z,99927.34
2023-05-06T20:21:23.998Z,99919.13
2023-05-06T20:23:52.121Z,99909.56
2023-05-06T20:26:23.305Z,99914.66
2023-05-06T20:28:54.489Z,99912.97
2023-05-06T20:31:22.554Z,99911.28
2023-05-06T20:33:50.730Z,99913.53
2023-05-06T20:36:19.779Z,99898.81
2023-05-06T20:38:50.099Z,99883.72
2023-05-06T20:41:18.301Z,99886.25
2023-05-06T20:43:46.435Z,99876.94
2023-05-06T20:46:16.074Z,99878.53
2023-05-06T20:48:44.124Z,99878.00
2023-05-06T20:51:12.248Z,99876.41
2023-05-06T20:53:40.312Z,99874.81
2023-05-06T20:56:17.199Z,99871.19
2023-05-06T20:58:45.245Z,99870.59
2023-05-06T21:01:13.421Z,99875.66
2023-05-06T21:03:43.117Z,99877.22
2023-05-06T21:06:11.551Z,99874.56
2023-05-06T21:08:39.655Z,99871.44
2023-05-06T21:11:07.992Z,99882.09
2023-05-06T21:13:36.128Z,99897.31
2023-05-06T21:16:04.365Z,99893.44
2023-05-06T21:18:32.604Z,99891.44
2023-05-06T21:21:02.220Z,99891.78
2023-05-06T21:23:30.292Z,99893.97
2023-05-06T21:25:59.490Z,99888.91
2023-05-06T21:28:27.596Z,99881.03
2023-05-06T21:30:55.887Z,99872.09
2023-05-06T21:33:24.019Z,99884.09
2023-05-06T21:35:52.040Z,99896.63
2023-05-06T21:38:21.593Z,99900.03
2023-05-06T21:40:49.657Z,99899.53
2023-05-06T21:43:18.513Z,99904.53
2023-05-06T21:45:46.581Z,99906.44
2023-05-06T21:48:14.639Z,99900.41
2023-05-06T21:50:42.730Z,99904.38
2023-05-06T21:53:10.810Z,99921.53
2023-05-06T21:55:40.250Z,99924.41
2023-05-06T21:58:08.369Z,99939.13
2023-05-06T22:00:36.573Z,99942.50
2023-05-06T22:03:05.088Z,99941.03
2023-05-06T22:05:33.338Z,99947.06
2023-05-06T22:08:01.671Z,99948.88
2023-05-06T22:10:29.825Z,99943.91
2023-05-06T22:12:59.408Z,99937.50
2023-05-06T22:15:27.535Z,99930.63
2023-05-06T22:17:55.690Z,99917.34
2023-05-06T22:20:24.288Z,99915.75
2023-05-06T22:22:52.626Z,99929.53
2023-05-06T22:25:21.026Z,99922.31
2023-05-06T22:27:49.158Z,99921.09
2023-05-06T22:30:18.887Z,99921.53
2023-05-06T22:32:46.967Z,99915.22
2023-05-06T22:35:15.924Z,99898.53
2023-05-06T22:37:44.089Z,99905.00
2023-05-06T22:40:13.328Z,99902.56
2023-05-06T22:42:41.402Z,99898.25
2023-05-06T22:45:11.718Z,99905.34
2023-05-06T22:47:41.590Z,99907.03
2023-05-06T22:50:10.452Z,99912.47
2023-05-06T22:52:39.058Z,99908.97
2023-05-06T22:55:09.904Z,99910.75
2023-05-06T22:57:38.281Z,99918.50
2023-05-06T23:00:08.780Z,99916.81
2023-05-06T23:02:37.460Z,99909.56
2023-05-06T23:05:07.860Z,99907.66
2023-05-06T23:07:36.588Z,99905.72
2023-05-06T23:10:04.717Z,99900.22
2023-05-06T23:12:33.708Z,99908.03
2023-05-06T23:15:01.986Z,99911.16
2023-05-06T23:17:30.110Z,99911.78
2023-05-06T23:19:59.174Z,99915.91
2023-05-06T23:22:28.673Z,99917.59
2023-05-06T23:24:56.928Z,99906.53
2023-05-06T23:27:25.023Z,99909.91
2023-05-06T23:29:53.128Z,99896.88
2023-05-06T23:32:21.319Z,99905.81
2023-05-06T23:34:49.774Z,99898.06
2023-05-06T23:37:17.876Z,99894.06
2023-05-06T23:39:48.092Z,99891.84
2023-05-06T23:42:16.191Z,99891.25
2023-05-06T23:44:44.271Z,99901.84
2023-05-06T23:47:12.401Z,99894.78
2023-05-06T23:49:40.489Z,99893.53
2023-05-06T23:52:08.535Z,99891.56
2023-05-06T23:54:36.692Z,99878.16
2023-05-06T23:57:06.301Z,99894.94
2023-05-06T23:59:34.422Z,99892.16
